createdAt,value
2022-07-31T00:01:51.767Z,15.90
2022-07-31T00:06:55.496Z,15.90
2022-07-31T00:11:59.184Z,15.90
2022-07-31T00:17:04.476Z,15.80
2022-07-31T00:22:08.184Z,15.80
2022-07-31T00:27:11.867Z,15.70
2022-07-31T00:32:16.977Z,15.70
2022-07-31T00:37:20.571Z,15.70
2022-07-31T00:42:27.562Z,15.60
2022-07-31T00:47:32.208Z,15.60
2022-07-31T00:52:35.893Z,15.50
2022-07-31T00:57:39.641Z,15.50
2022-07-31T01:02:46.435Z,15.50
2022-07-31T01:07:51.425Z,15.50
2022-07-31T01:13:00.561Z,15.40
2022-07-31T01:18:06.500Z,15.30
2022-07-31T01:23:32.316Z,15.40
2022-07-31T01:28:55.022Z,15.30
2022-07-31T01:34:04.311Z,15.30
2022-07-31T01:39:07.924Z,15.20
2022-07-31T01:44:14.841Z,15.20
2022-07-31T01:49:20.200Z,15.20
2022-07-31T01:54:24.523Z,15.20
2022-07-31T01:59:31.610Z,15.20
2022-07-31T02:04:38.160Z,15.20
2022-07-31T02:09:58.110Z,15.10
2022-07-31T02:15:05.835Z,15.10
2022-07-31T02:20:12.719Z,15.10
2022-07-31T02:25:16.416Z,15.00
2022-07-31T02:30:22.243Z,15.00
2022-07-31T02:35:26.416Z,15.00
2022-07-31T02:40:30.108Z,15.00
2022-07-31T02:45:35.657Z,14.90
2022-07-31T02:50:41.443Z,14.90
2022-07-31T02:55:46.325Z,14.90
2022-07-31T03:01:00.191Z,14.80
2022-07-31T03:06:03.785Z,14.80
2022-07-31T03:11:07.423Z,14.80
2022-07-31T03:16:13.731Z,14.80
2022-07-31T03:21:19.249Z,14.70
2022-07-31T03:26:23.404Z,14.80
2022-07-31T03:31:28.571Z,14.80
2022-07-31T03:36:33.361Z,14.80
2022-07-31T03:41:37.009Z,14.70
2022-07-31T03:46:41.920Z,14.70
2022-07-31T03:51:45.784Z,14.80
2022-07-31T03:56:51.966Z,14.80
2022-07-31T04:01:58.889Z,14.80
2022-07-31T04:07:02.506Z,14.90
2022-07-31T04:12:06.792Z,14.90
2022-07-31T04:17:12.133Z,14.90
2022-07-31T04:22:15.624Z,14.90
2022-07-31T04:27:20.062Z,15.00
2022-07-31T04:32:25.502Z,15.10
2022-07-31T04:37:29.185Z,15.30
2022-07-31T04:42:32.795Z,15.50
2022-07-31T04:47:38.354Z,15.60
2022-07-31T04:52:42.068Z,15.70
2022-07-31T04:57:45.798Z,15.60
2022-07-31T05:02:50.876Z,15.50
2022-07-31T05:07:54.197Z,15.60
2022-07-31T05:12:57.623Z,15.60
2022-07-31T05:18:02.464Z,15.80
2022-07-31T05:23:06.717Z,15.90
2022-07-31T05:28:10.229Z,16.10
2022-07-31T05:33:14.973Z,16.20
2022-07-31T05:38:20.112Z,16.60
2022-07-31T05:43:23.979Z,17.30
2022-07-31T05:48:28.908Z,17.90
2022-07-31T05:53:32.159Z,18.30
2022-07-31T05:58:35.802Z,18.70
2022-07-31T06:03:52.433Z,19.00
2022-07-31T06:08:58.437Z,19.50
2022-07-31T06:14:05.293Z,20.20
2022-07-31T06:19:09.951Z,20.80
2022-07-31T06:24:13.544Z,21.70
2022-07-31T06:29:17.196Z,22.00
2022-07-31T06:34:22.116Z,22.40
2022-07-31T06:39:28.064Z,23.50
2022-07-31T06:44:49.504Z,24.10
2022-07-31T06:49:55.691Z,24.10
2022-07-31T06:54:59.031Z,24.20
2022-07-31T07:00:07.299Z,24.40
2022-07-31T07:05:25.027Z,24.40
2022-07-31T07:10:28.334Z,24.30
2022-07-31T07:15:31.861Z,24.00
2022-07-31T07:20:36.538Z,24.10
2022-07-31T07:25:41.272Z,24.50
2022-07-31T07:30:45.536Z,25.40
2022-07-31T07:35:50.594Z,26.20
2022-07-31T07:40:54.096Z,26.10
2022-07-31T07:45:57.677Z,25.70
2022-07-31T07:51:02.565Z,26.30
2022-07-31T07:56:06.632Z,27.10
2022-07-31T08:01:10.322Z,27.80
2022-07-31T08:06:15.148Z,28.50
2022-07-31T08:11:18.659Z,29.20
2022-07-31T08:16:22.318Z,29.10
2022-07-31T08:21:27.539Z,29.00
2022-07-31T08:26:51.998Z,28.70
2022-07-31T08:31:55.288Z,28.50
2022-07-31T08:37:51.275Z,28.00
2022-07-31T08:42:23.613Z,28.00
2022-07-31T08:47:28.164Z,28.20
2022-07-31T08:52:35.110Z,28.00
2022-07-31T08:57:38.637Z,28.30
2022-07-31T09:02:42.618Z,28.30
2022-07-31T09:07:47.572Z,28.40
2022-07-31T09:12:51.088Z,29.20
2022-07-31T09:17:55.308Z,29.90
2022-07-31T09:28:13.468Z,30.20
2022-07-31T09:33:18.909Z,30.70
2022-07-31T09:38:23.467Z,30.50
2022-07-31T09:43:31.472Z,30.60
2022-07-31T09:48:35.899Z,30.40
2022-07-31T09:53:43.930Z,30.60
2022-07-31T09:58:48.497Z,30.60
2022-07-31T10:03:53.503Z,30.80
2022-07-31T10:08:57.781Z,30.60
2022-07-31T10:14:04.099Z,31.10
2022-07-31T10:19:11.570Z,31.30
2022-07-31T10:24:14.862Z,31.20
2022-07-31T10:29:20.050Z,31.90
2022-07-31T10:34:23.932Z,30.80
2022-07-31T10:39:32.704Z,30.60
2022-07-31T10:44:41.635Z,31.00
2022-07-31T10:49:48.127Z,31.20
2022-07-31T10:54:51.297Z,32.00
2022-07-31T10:59:55.922Z,32.40
2022-07-31T11:05:14.321Z,32.90
2022-07-31T11:10:19.881Z,32.50
2022-07-31T11:15:25.896Z,32.70
2022-07-31T11:20:31.158Z,32.60
2022-07-31T11:25:37.128Z,33.20
2022-07-31T11:30:55.694Z,32.90
2022-07-31T11:36:06.405Z,32.80
2022-07-31T11:41:09.848Z,33.30
2022-07-31T11:46:16.875Z,33.20
2022-07-31T11:51:20.308Z,33.00
2022-07-31T11:56:24.820Z,33.00
2022-07-31T12:01:30.847Z,33.40
2022-07-31T12:06:36.542Z,34.10
2022-07-31T12:11:40.448Z,34.70
2022-07-31T12:16:45.520Z,35.10
2022-07-31T12:21:49.238Z,34.40
2022-07-31T12:26:54.980Z,34.20
2022-07-31T12:32:19.349Z,33.80
2022-07-31T12:37:47.218Z,33.20
2022-07-31T12:43:01.365Z,34.50
2022-07-31T12:48:07.550Z,35.40
2022-07-31T12:53:10.687Z,34.70
2022-07-31T12:58:51.927Z,34.20
2022-07-31T13:04:19.760Z,35.40
2022-07-31T13:09:23.254Z,35.80
2022-07-31T13:14:40.325Z,36.60
2022-07-31T13:20:00.062Z,36.70
2022-07-31T13:25:07.455Z,37.00
2022-07-31T13:30:11.680Z,37.50
2022-07-31T13:35:23.573Z,37.70
2022-07-31T13:41:06.963Z,38.20
2022-07-31T13:46:20.870Z,36.80
2022-07-31T13:51:34.607Z,33.90
2022-07-31T13:56:43.084Z,33.90
2022-07-31T14:02:21.966Z,34.40
2022-07-31T14:07:48.164Z,34.80
2022-07-31T14:12:55.420Z,33.20
2022-07-31T14:17:58.972Z,32.20
2022-07-31T14:23:04.558Z,31.60
2022-07-31T14:28:37.106Z,31.20
2022-07-31T14:33:40.955Z,30.60
2022-07-31T14:38:45.681Z,30.10
2022-07-31T14:44:01.028Z,30.00
2022-07-31T14:49:05.064Z,30.00
2022-07-31T14:54:09.762Z,29.90
2022-07-31T14:59:13.394Z,29.80
2022-07-31T15:04:16.949Z,30.00
2022-07-31T15:09:21.678Z,30.20
2022-07-31T15:14:25.450Z,30.40
2022-07-31T15:19:29.266Z,30.70
2022-07-31T15:24:34.202Z,30.50
2022-07-31T15:30:00.672Z,30.40
2022-07-31T15:35:01.147Z,30.20
2022-07-31T15:40:08.243Z,30.00
2022-07-31T15:45:13.958Z,29.60
2022-07-31T15:50:19.539Z,29.40
2022-07-31T15:55:24.613Z,29.10
2022-07-31T16:00:28.291Z,29.10
2022-07-31T16:05:35.978Z,29.20
2022-07-31T16:10:41.722Z,29.20
2022-07-31T16:15:45.396Z,29.00
2022-07-31T16:20:49.199Z,29.00
2022-07-31T16:25:53.891Z,29.00
2022-07-31T16:30:56.980Z,28.90
2022-07-31T16:36:00.952Z,28.90
2022-07-31T16:41:05.994Z,28.60
2022-07-31T16:46:09.583Z,28.10
2022-07-31T16:51:13.308Z,27.70
2022-07-31T16:56:18.234Z,27.50
2022-07-31T17:01:56.796Z,27.40
2022-07-31T17:06:45.903Z,27.40
2022-07-31T17:11:52.242Z,27.30
2022-07-31T17:16:57.246Z,27.30
2022-07-31T17:22:00.884Z,27.20
2022-07-31T17:27:08.801Z,27.20
2022-07-31T17:32:12.846Z,27.10
2022-07-31T17:37:18.283Z,27.10
2022-07-31T17:42:23.701Z,27.10
2022-07-31T17:47:28.884Z,27.00
2022-07-31T17:52:32.543Z,26.90
2022-07-31T17:57:37.856Z,26.70
2022-07-31T18:02:42.176Z,26.60
2022-07-31T18:07:51.817Z,26.40
2022-07-31T18:12:58.356Z,26.40
2022-07-31T18:18:01.934Z,26.20
2022-07-31T18:23:05.272Z,26.10
2022-07-31T18:28:15.013Z,25.90
2022-07-31T18:33:18.670Z,25.80
2022-07-31T18:38:22.115Z,25.70
2022-07-31T18:43:26.971Z,25.70
2022-07-31T18:48:30.623Z,25.60
2022-07-31T18:53:33.813Z,25.50
2022-07-31T18:58:38.806Z,25.40
2022-07-31T19:03:41.985Z,25.30
2022-07-31T19:08:46.363Z,25.30
2022-07-31T19:13:51.481Z,25.20
2022-07-31T19:18:54.885Z,25.10
2022-07-31T19:24:00.478Z,25.00
2022-07-31T19:29:05.429Z,25.00
2022-07-31T19:34:08.869Z,24.90
2022-07-31T19:39:12.200Z,24.80
2022-07-31T19:44:17.064Z,24.90
2022-07-31T19:49:21.345Z,24.80
2022-07-31T19:54:24.559Z,24.80
2022-07-31T19:59:32.410Z,24.90
2022-07-31T20:04:37.697Z,24.70
2022-07-31T20:09:41.357Z,24.60
2022-07-31T20:14:45.938Z,24.50
2022-07-31T20:20:15.094Z,24.50
2022-07-31T20:25:20.258Z,24.20
2022-07-31T20:30:25.721Z,24.00
2022-07-31T20:35:47.630Z,23.60
2022-07-31T20:40:55.584Z,23.40
2022-07-31T20:46:01.217Z,23.30
2022-07-31T20:51:06.237Z,23.20
2022-07-31T20:56:09.791Z,23.10
2022-07-31T21:01:15.576Z,23.00
2022-07-31T21:06:19.828Z,23.00
2022-07-31T21:11:23.390Z,22.90
2022-07-31T21:16:36.682Z,22.90
2022-07-31T21:21:40.360Z,22.90
2022-07-31T21:26:46.184Z,22.80
2022-07-31T21:31:57.793Z,22.50
2022-07-31T21:37:02.651Z,22.00
2022-07-31T21:42:10.712Z,21.90
2022-07-31T21:47:17.738Z,21.80
2022-07-31T21:52:23.771Z,21.70
2022-07-31T21:57:27.223Z,21.50
2022-07-31T22:02:33.389Z,21.50
2022-07-31T22:07:43.057Z,21.50
2022-07-31T22:12:46.597Z,21.40
2022-07-31T22:17:51.427Z,21.40
2022-07-31T22:22:56.628Z,21.50
2022-07-31T22:28:01.270Z,21.40
2022-07-31T22:33:06.611Z,21.40
2022-07-31T22:38:11.532Z,21.30
2022-07-31T22:44:10.424Z,21.20
2022-07-31T22:48:41.405Z,21.10
2022-07-31T22:53:48.642Z,20.90
2022-07-31T22:58:52.752Z,20.70
2022-07-31T23:03:57.275Z,20.70
2022-07-31T23:09:01.248Z,20.70
2022-07-31T23:14:04.889Z,20.70
2022-07-31T23:19:09.705Z,20.70
2022-07-31T23:24:13.756Z,20.70
2022-07-31T23:29:17.208Z,20.70
2022-07-31T23:34:22.228Z,20.70
2022-07-31T23:39:25.605Z,20.70
2022-07-31T23:44:30.266Z,20.70
2022-07-31T23:49:34.949Z,20.60
2022-07-31T23:54:38.643Z,20.50
2022-07-31T23:59:42.091Z,20.50
